Time;durP1;ratioP1;P1;durP2;ratioP2;P2;SDS_P1;SDS_P2;PMS_P1;PMS_P2;Temp;Humidity;BMP_temperature;BMP_pressure;BME280_temperature;BME280_humidity;BME280_pressure;Samples;Min_cycle;Max_cycle;Signal;HPM_P1;HPM_P2
2022/11/17 00:00:36;;;;;;;7.80;3.77;;;10.80;99.90;;;;;;5054375;28;20167;-66
2022/11/17 00:03:01;;;;;;;5.23;3.43;;;10.80;99.90;;;;;;5054466;28;20202;-66
2022/11/17 00:05:27;;;;;;;5.47;3.40;;;10.80;99.90;;;;;;5054287;28;20235;-66
2022/11/17 00:07:53;;;;;;;4.50;3.80;;;10.90;99.90;;;;;;5054103;28;20359;-66
2022/11/17 00:10:19;;;;;;;11.10;3.80;;;10.90;99.90;;;;;;5054069;28;20643;-66
2022/11/17 00:15:29;;;;;;;5.43;3.80;;;10.90;99.90;;;;;;5054223;28;20546;-66
2022/11/17 00:23:25;;;;;;;8.47;3.90;;;10.90;99.90;;;;;;5054627;28;20584;-66
2022/11/17 00:25:51;;;;;;;5.50;3.80;;;10.90;99.90;;;;;;5053929;28;20639;-66
2022/11/17 00:28:16;;;;;;;5.70;3.57;;;10.90;99.90;;;;;;5054136;28;20202;-66
2022/11/17 00:36:10;;;;;;;5.77;3.80;;;10.90;99.90;;;;;;5053849;28;20231;-66
2022/11/17 00:38:36;;;;;;;6.70;4.00;;;11.00;99.90;;;;;;5053666;28;20663;-66
2022/11/17 00:41:02;;;;;;;6.97;4.10;;;10.90;99.90;;;;;;5053528;28;20182;-66
2022/11/17 00:43:28;;;;;;;8.87;3.87;;;11.00;99.90;;;;;;5053997;28;20531;-66
2022/11/17 00:45:53;;;;;;;7.33;3.80;;;11.00;99.90;;;;;;5052313;28;20201;-66
2022/11/17 00:48:19;;;;;;;5.50;3.97;;;10.90;99.90;;;;;;5053223;28;20651;-66
2022/11/17 00:50:45;;;;;;;4.37;3.60;;;10.90;99.90;;;;;;5053583;28;20185;-67
2022/11/17 00:53:11;;;;;;;6.55;3.92;;;10.90;99.90;;;;;;5053515;28;20590;-66
2022/11/17 00:55:36;;;;;;;4.40;3.80;;;10.90;99.90;;;;;;5053250;28;20178;-66
2022/11/17 00:58:02;;;;;;;9.10;3.70;;;10.80;99.90;;;;;;5052180;28;20245;-66
2022/11/17 01:00:28;;;;;;;7.77;4.13;;;10.80;99.90;;;;;;5053501;28;20178;-66
2022/11/17 01:02:54;;;;;;;6.43;3.67;;;10.80;99.90;;;;;;5053332;28;20574;-66
2022/11/17 01:05:19;;;;;;;7.47;3.53;;;10.80;99.90;;;;;;5051975;28;20243;-66
2022/11/17 01:07:45;;;;;;;9.37;3.80;;;10.80;99.90;;;;;;5053303;28;20198;-66
2022/11/17 01:10:12;;;;;;;4.60;3.33;;;10.80;99.90;;;;;;5053244;28;20174;-66
2022/11/17 01:12:38;;;;;;;4.60;3.60;;;10.80;99.90;;;;;;5053103;28;20202;-66
2022/11/17 01:15:04;;;;;;;6.50;3.50;;;10.80;99.90;;;;;;5053299;28;20216;-66
2022/11/17 01:17:30;;;;;;;5.43;3.30;;;10.80;99.90;;;;;;5053504;28;20610;-66
2022/11/17 01:19:55;;;;;;;6.40;3.90;;;10.70;99.90;;;;;;5053304;28;20287;-66
2022/11/17 01:22:21;;;;;;;3.77;3.33;;;10.70;99.90;;;;;;5053123;28;20240;-66
2022/11/17 01:24:47;;;;;;;6.57;3.70;;;10.70;99.90;;;;;;5053079;28;20169;-66
2022/11/17 01:27:12;;;;;;;5.93;3.20;;;10.70;99.90;;;;;;5053148;28;20516;-67
2022/11/17 01:29:38;;;;;;;4.90;3.73;;;10.70;99.90;;;;;;5053142;28;20171;-66
2022/11/17 01:32:04;;;;;;;3.43;3.13;;;10.80;99.90;;;;;;5051813;28;20190;-66
2022/11/17 01:34:30;;;;;;;8.37;3.70;;;10.80;99.90;;;;;;5053374;28;20673;-66
2022/11/17 01:39:39;;;;;;;5.37;3.53;;;10.80;99.90;;;;;;5053017;28;20252;-66
2022/11/17 01:42:22;;;;;;;4.37;3.33;;;10.70;99.90;;;;;;5053153;28;20210;-66
2022/11/17 01:45:01;;;;;;;5.60;3.20;;;10.70;99.90;;;;;;5051685;28;20170;-66
2022/11/17 01:47:50;;;;;;;6.33;3.40;;;10.70;99.90;;;;;;5053023;28;20206;-66
2022/11/17 01:50:34;;;;;;;4.77;3.60;;;10.70;99.90;;;;;;5052923;28;20170;-66
2022/11/17 01:53:04;;;;;;;5.30;3.50;;;10.70;99.90;;;;;;5051592;28;20220;-66
2022/11/17 01:55:55;;;;;;;4.97;3.53;;;10.70;99.90;;;;;;5052731;28;20182;-66
2022/11/17 01:58:28;;;;;;;4.97;3.60;;;10.70;99.90;;;;;;5052871;28;20194;-66
2022/11/17 02:00:54;;;;;;;6.20;3.60;;;10.70;99.90;;;;;;5056656;28;20624;-66
2022/11/17 02:03:21;;;;;;;4.33;3.20;;;10.70;99.90;;;;;;5056653;28;20174;-66
2022/11/17 02:05:56;;;;;;;7.17;3.83;;;10.60;99.90;;;;;;5056714;28;20177;-67
2022/11/17 02:08:26;;;;;;;4.77;3.27;;;10.60;99.90;;;;;;5055542;28;20222;-67
2022/11/17 02:10:52;;;;;;;5.70;3.40;;;10.70;99.90;;;;;;5056600;28;20159;-66
2022/11/17 02:13:20;;;;;;;5.27;3.80;;;10.70;99.90;;;;;;5055327;28;20190;-66
2022/11/17 02:15:46;;;;;;;5.97;3.50;;;10.60;99.90;;;;;;5056783;28;20196;-66
2022/11/17 02:18:12;;;;;;;3.50;3.20;;;10.50;99.90;;;;;;5056435;28;20726;-66
2022/11/17 02:20:50;;;;;;;8.53;3.37;;;10.50;99.90;;;;;;5056348;28;20179;-66
2022/11/17 02:23:53;;;;;;;3.30;3.00;;;10.50;99.90;;;;;;5056063;28;20197;-66
2022/11/17 02:26:25;;;;;;;6.40;3.20;;;10.50;99.90;;;;;;5056154;28;20171;-66
2022/11/17 02:29:03;;;;;;;5.10;3.00;;;10.50;99.90;;;;;;5054786;28;20199;-66
2022/11/17 02:31:36;;;;;;;5.50;3.00;;;10.40;99.90;;;;;;5055945;28;20175;-66
2022/11/17 02:34:09;;;;;;;6.23;3.20;;;10.40;99.90;;;;;;5056210;28;20246;-66
2022/11/17 02:37:07;;;;;;;3.90;3.23;;;10.40;99.90;;;;;;5054714;28;20236;-66
2022/11/17 02:40:00;;;;;;;3.70;3.20;;;10.30;99.90;;;;;;5054780;28;20201;-66
2022/11/17 02:45:25;;;;;;;3.00;2.70;;;10.40;99.90;;;;;;5056305;28;20181;-66
2022/11/17 02:47:53;;;;;;;4.37;2.90;;;10.30;99.90;;;;;;5055589;28;20190;-66
2022/11/17 02:50:22;;;;;;;2.90;2.70;;;10.30;99.90;;;;;;5055996;28;20174;-66
2022/11/17 02:52:48;;;;;;;6.60;3.37;;;10.20;99.90;;;;;;5055640;28;20171;-67
2022/11/17 02:55:14;;;;;;;3.30;3.00;;;10.20;99.90;;;;;;5055549;28;20546;-66
2022/11/17 02:57:40;;;;;;;2.97;2.70;;;10.20;99.90;;;;;;5055505;28;20241;-66
2022/11/17 03:00:10;;;;;;;4.50;2.80;;;10.10;99.90;;;;;;5055588;28;20266;-66
2022/11/17 03:03:07;;;;;;;5.70;3.43;;;10.10;99.90;;;;;;5055407;28;20205;-66
2022/11/17 03:05:57;;;;;;;3.03;2.80;;;10.20;99.90;;;;;;5055474;28;20159;-66
2022/11/17 03:09:00;;;;;;;4.00;3.10;;;10.10;99.90;;;;;;5053972;28;20202;-66
2022/11/17 03:11:38;;;;;;;7.37;3.20;;;10.10;99.90;;;;;;5054660;28;20208;-67
2022/11/17 03:14:24;;;;;;;2.90;2.70;;;10.00;99.90;;;;;;5056092;28;20169;-66
2022/11/17 03:17:00;;;;;;;4.60;3.00;;;10.00;99.90;;;;;;5054049;28;20641;-66
2022/11/17 03:19:34;;;;;;;4.27;2.80;;;9.90;99.90;;;;;;5055447;28;20651;-66
2022/11/17 03:22:09;;;;;;;3.57;3.03;;;9.80;99.90;;;;;;5055067;28;20281;-67
2022/11/17 03:24:38;;;;;;;3.27;2.97;;;9.80;99.90;;;;;;5053746;28;20638;-66
2022/11/17 03:27:26;;;;;;;2.77;2.63;;;9.70;99.90;;;;;;5055243;28;20174;-67
2022/11/17 03:29:57;;;;;;;4.43;3.30;;;9.70;99.90;;;;;;5054566;28;20182;-67
2022/11/17 03:32:26;;;;;;;3.33;2.90;;;9.70;99.90;;;;;;5055465;28;20522;-66
2022/11/17 03:34:56;;;;;;;5.20;2.70;;;9.60;99.90;;;;;;5054911;28;20570;-66
2022/11/17 03:37:24;;;;;;;4.57;3.00;;;9.60;99.90;;;;;;5053476;28;20199;-66
2022/11/17 03:39:56;;;;;;;3.67;2.67;;;9.60;99.90;;;;;;5054549;28;20220;-66
2022/11/17 03:42:32;;;;;;;3.03;2.83;;;9.60;99.90;;;;;;5054759;28;20187;-66
2022/11/17 03:45:05;;;;;;;2.97;2.77;;;9.60;99.90;;;;;;5053452;28;20175;-67
2022/11/17 03:47:33;;;;;;;3.47;3.13;;;9.60;99.90;;;;;;5054862;28;20197;-66
2022/11/17 03:50:15;;;;;;;5.27;3.20;;;9.60;99.90;;;;;;5053331;28;20539;-66
2022/11/17 03:52:42;;;;;;;3.50;2.80;;;9.60;99.90;;;;;;5055064;28;20174;-66
2022/11/17 03:55:08;;;;;;;3.10;2.90;;;9.50;99.90;;;;;;5054757;28;20543;-66
2022/11/17 03:57:43;;;;;;;3.50;2.80;;;9.60;99.90;;;;;;5054889;28;20198;-66
2022/11/17 04:00:16;;;;;;;3.73;2.80;;;9.50;99.90;;;;;;5053754;28;20534;-66
2022/11/17 04:02:44;;;;;;;3.97;3.10;;;9.50;99.90;;;;;;5052974;28;20316;-66
2022/11/17 04:05:11;;;;;;;3.47;3.17;;;9.50;99.90;;;;;;5053070;28;20177;-66
2022/11/17 04:07:39;;;;;;;3.03;2.70;;;9.50;99.90;;;;;;5054380;28;20272;-67
2022/11/17 04:10:07;;;;;;;3.10;2.73;;;9.50;99.90;;;;;;5053973;28;20174;-66
2022/11/17 04:18:02;;;;;;;3.17;2.80;;;9.60;99.90;;;;;;5054462;28;20294;-67
2022/11/17 04:20:34;;;;;;;3.77;2.90;;;9.50;99.90;;;;;;5054079;28;20708;-66
2022/11/17 04:23:08;;;;;;;3.10;2.90;;;9.50;99.90;;;;;;5053670;28;20651;-66
2022/11/17 04:28:37;;;;;;;3.57;3.00;;;9.50;99.90;;;;;;5054115;28;20192;-66
2022/11/17 04:31:12;;;;;;;3.47;2.77;;;9.50;99.90;;;;;;5052607;28;20635;-66
2022/11/17 04:33:40;;;;;;;3.00;2.80;;;9.50;99.90;;;;;;5053814;28;20627;-66
2022/11/17 04:36:06;;;;;;;3.30;3.00;;;9.50;99.90;;;;;;5052945;28;20174;-66
2022/11/17 04:38:32;;;;;;;3.30;3.00;;;9.50;99.90;;;;;;5053716;28;20197;-66
2022/11/17 04:43:52;;;;;;;4.13;2.80;;;9.50;99.90;;;;;;5054198;28;20170;-66
2022/11/17 04:46:20;;;;;;;3.20;3.00;;;9.50;99.90;;;;;;5052369;28;20174;-66
2022/11/17 04:48:47;;;;;;;5.00;3.10;;;9.50;99.90;;;;;;5052464;28;20198;-67
2022/11/17 04:51:14;;;;;;;4.03;3.20;;;9.50;99.90;;;;;;5052410;28;20239;-66
2022/11/17 04:53:41;;;;;;;4.80;3.23;;;9.50;99.90;;;;;;5053513;28;20175;-66
2022/11/17 04:56:07;;;;;;;2.97;2.77;;;9.50;99.90;;;;;;5053435;28;20513;-66
2022/11/17 04:58:33;;;;;;;3.27;2.83;;;9.50;99.90;;;;;;5053383;28;20190;-66
2022/11/17 05:01:11;;;;;;;4.17;3.30;;;9.50;99.90;;;;;;5053308;28;20174;-66
2022/11/17 05:04:04;;;;;;;3.20;2.90;;;9.40;99.90;;;;;;5053372;28;20164;-66
2022/11/17 05:06:39;;;;;;;3.57;3.10;;;9.40;99.90;;;;;;5053120;28;20336;-66
2022/11/17 05:09:10;;;;;;;4.97;3.30;;;9.40;99.90;;;;;;5053221;28;20201;-67
2022/11/17 05:14:22;;;;;;;3.00;2.70;;;9.50;99.90;;;;;;5053864;28;20174;-66
2022/11/17 05:17:08;;;;;;;3.00;2.70;;;9.40;99.90;;;;;;5053808;28;20557;-66
2022/11/17 05:19:41;;;;;;;5.50;4.00;;;9.50;99.90;;;;;;5053783;28;20166;-66
2022/11/17 05:24:52;;;;;;;3.43;3.07;;;9.50;99.90;;;;;;5053408;28;20170;-66
2022/11/17 05:27:18;;;;;;;3.70;3.40;;;9.50;99.90;;;;;;5053643;28;20225;-66
2022/11/17 05:29:44;;;;;;;3.40;3.10;;;9.50;99.90;;;;;;5053548;28;20635;-66
2022/11/17 05:32:09;;;;;;;3.70;3.00;;;9.50;99.90;;;;;;5053393;28;20190;-66
2022/11/17 05:34:35;;;;;;;3.93;3.30;;;9.50;99.90;;;;;;5057484;28;20546;-67
2022/11/17 05:37:01;;;;;;;3.10;2.90;;;9.50;99.90;;;;;;5058290;28;20174;-68
2022/11/17 05:39:26;;;;;;;6.03;3.37;;;9.50;99.90;;;;;;5057033;28;20179;-66
2022/11/17 05:41:52;;;;;;;3.60;3.00;;;9.50;99.90;;;;;;5056831;28;20273;-66
2022/11/17 05:44:18;;;;;;;4.27;3.00;;;9.50;99.90;;;;;;5056932;28;20174;-66
2022/11/17 05:46:43;;;;;;;3.57;3.27;;;9.50;99.90;;;;;;5057269;28;20186;-66
2022/11/17 05:49:09;;;;;;;3.40;3.10;;;9.40;99.90;;;;;;5056775;28;20186;-66
2022/11/17 05:51:37;;;;;;;3.50;3.30;;;9.40;99.90;;;;;;5057854;28;20597;-66
2022/11/17 05:54:03;;;;;;;3.50;3.20;;;9.40;99.90;;;;;;5056713;28;20170;-66
2022/11/17 05:56:45;;;;;;;7.00;3.43;;;9.50;99.90;;;;;;5056698;28;20217;-66
2022/11/17 05:59:42;;;;;;;3.77;3.37;;;9.50;99.90;;;;;;5056618;28;20198;-66
2022/11/17 06:02:24;;;;;;;4.50;3.47;;;9.50;99.90;;;;;;5055961;28;20683;-66
2022/11/17 06:04:50;;;;;;;4.27;3.40;;;9.50;99.90;;;;;;5057024;28;20155;-66
2022/11/17 06:07:18;;;;;;;6.83;4.10;;;9.50;99.90;;;;;;5057110;28;20171;-67
2022/11/17 06:09:45;;;;;;;3.63;3.40;;;9.60;99.90;;;;;;5055508;28;20286;-66
2022/11/17 06:12:11;;;;;;;5.07;3.40;;;9.60;99.90;;;;;;5056784;28;20658;-66
2022/11/17 06:14:38;;;;;;;4.43;4.03;;;9.60;99.90;;;;;;5055585;28;20269;-66
2022/11/17 06:17:26;;;;;;;4.27;3.77;;;9.70;99.90;;;;;;5056274;28;20174;-66
2022/11/17 06:20:06;;;;;;;8.13;3.77;;;9.70;99.90;;;;;;5057043;28;20213;-66
2022/11/17 06:22:33;;;;;;;4.60;3.77;;;9.70;99.90;;;;;;5055990;28;20512;-66
2022/11/17 06:25:00;;;;;;;5.57;3.70;;;9.70;99.90;;;;;;5056238;28;20198;-66
2022/11/17 06:27:28;;;;;;;4.00;3.60;;;9.80;99.90;;;;;;5056353;28;20190;-66
2022/11/17 06:29:55;;;;;;;5.53;4.20;;;9.80;99.90;;;;;;5056205;28;20682;-66
2022/11/17 06:32:21;;;;;;;8.90;3.83;;;9.80;99.90;;;;;;5056572;28;20191;-66
2022/11/17 06:34:49;;;;;;;6.20;3.97;;;9.90;99.90;;;;;;5056060;28;20220;-66
2022/11/17 06:37:14;;;;;;;6.60;3.93;;;9.90;99.90;;;;;;5056269;28;20181;-66
2022/11/17 06:39:40;;;;;;;7.83;4.10;;;9.90;99.90;;;;;;5055900;28;20182;-66
2022/11/17 06:42:06;;;;;;;5.40;4.10;;;9.90;99.90;;;;;;5054336;28;20289;-65
2022/11/17 06:44:31;;;;;;;5.87;4.33;;;9.80;99.90;;;;;;5055468;28;20163;-68
2022/11/17 06:46:57;;;;;;;5.77;4.43;;;9.80;99.90;;;;;;5055543;28;20171;-68
2022/11/17 06:49:23;;;;;;;8.33;4.70;;;9.70;99.90;;;;;;5055707;28;20691;-68
2022/11/17 06:51:49;;;;;;;6.60;4.30;;;9.70;99.90;;;;;;5056265;28;20178;-68
2022/11/17 06:54:14;;;;;;;12.63;4.87;;;9.60;99.90;;;;;;5055819;28;20249;-69
2022/11/17 06:56:40;;;;;;;7.23;4.57;;;9.60;99.90;;;;;;5055504;28;20721;-69
2022/11/17 06:59:06;;;;;;;6.97;4.50;;;9.60;99.90;;;;;;5055547;28;20206;-68
2022/11/17 07:01:32;;;;;;;6.80;4.70;;;9.60;99.90;;;;;;5054307;28;20621;-68
2022/11/17 07:03:57;;;;;;;11.30;5.00;;;9.50;99.90;;;;;;5054213;28;20177;-68
2022/11/17 07:06:23;;;;;;;8.07;4.97;;;9.50;99.90;;;;;;5054164;28;20181;-68
2022/11/17 07:08:49;;;;;;;9.20;4.93;;;9.50;99.90;;;;;;5055238;28;20224;-68
2022/11/17 07:11:16;;;;;;;9.27;5.40;;;9.40;99.90;;;;;;5053776;28;20555;-68
2022/11/17 07:13:42;;;;;;;7.50;5.27;;;9.40;99.90;;;;;;5055201;28;20166;-68
2022/11/17 07:16:10;;;;;;;7.10;4.80;;;9.40;99.90;;;;;;5053763;28;20179;-65
2022/11/17 07:18:38;;;;;;;8.47;4.80;;;9.40;99.90;;;;;;5054938;28;20546;-67
2022/11/17 07:21:05;;;;;;;9.10;5.20;;;9.40;99.90;;;;;;5055296;28;20177;-67
2022/11/17 07:23:32;;;;;;;9.63;5.40;;;9.40;99.90;;;;;;5054881;28;20213;-67
2022/11/17 07:25:59;;;;;;;12.07;5.43;;;9.40;99.90;;;;;;5053681;28;20178;-67
2022/11/17 07:28:25;;;;;;;6.10;4.60;;;9.40;99.90;;;;;;5055133;28;20531;-67
2022/11/17 07:30:51;;;;;;;8.80;5.23;;;9.40;99.90;;;;;;5054826;28;20171;-67
2022/11/17 07:33:17;;;;;;;8.40;4.97;;;9.40;99.90;;;;;;5053522;28;20752;-67
2022/11/17 07:35:43;;;;;;;8.10;4.70;;;9.40;99.90;;;;;;5055078;28;20253;-67
2022/11/17 07:38:09;;;;;;;9.37;4.90;;;9.40;99.90;;;;;;5055019;28;20279;-67
2022/11/17 07:40:35;;;;;;;9.97;5.07;;;9.40;99.90;;;;;;5054688;28;20183;-67
2022/11/17 07:43:00;;;;;;;10.33;5.10;;;9.40;99.90;;;;;;5054586;28;20201;-67
2022/11/17 07:45:27;;;;;;;8.03;5.10;;;9.40;99.90;;;;;;5054510;28;20240;-67
2022/11/17 07:47:57;;;;;;;9.07;5.47;;;9.40;99.90;;;;;;5054430;28;20248;-67
2022/11/17 07:50:25;;;;;;;7.40;5.03;;;9.40;99.90;;;;;;5053094;28;20186;-67
2022/11/17 07:52:53;;;;;;;6.03;4.90;;;9.40;99.90;;;;;;5054357;28;20174;-67
2022/11/17 07:55:20;;;;;;;7.53;4.53;;;9.40;99.90;;;;;;5054417;28;20167;-66
2022/11/17 07:57:46;;;;;;;7.73;4.77;;;9.40;99.90;;;;;;5054428;28;20205;-66
2022/11/17 08:00:13;;;;;;;8.60;5.00;;;9.40;99.90;;;;;;5054276;28;20174;-67
2022/11/17 08:02:40;;;;;;;7.03;4.57;;;9.40;99.90;;;;;;5054239;28;20198;-66
2022/11/17 08:05:06;;;;;;;7.10;4.63;;;9.40;99.90;;;;;;5054108;28;20538;-66
2022/11/17 08:07:32;;;;;;;8.47;4.27;;;9.40;99.90;;;;;;5054239;28;20210;-68
2022/11/17 08:09:58;;;;;;;6.00;3.70;;;9.40;99.90;;;;;;5053906;28;20175;-67
2022/11/17 08:12:23;;;;;;;4.17;3.40;;;9.30;99.90;;;;;;5053862;28;20201;-66
2022/11/17 08:14:49;;;;;;;5.87;3.80;;;9.30;99.90;;;;;;5053988;28;20666;-67
2022/11/17 08:17:16;;;;;;;5.60;3.30;;;9.30;99.90;;;;;;5053892;28;20255;-71
2022/11/17 08:19:42;;;;;;;5.50;3.00;;;9.30;99.90;;;;;;5054565;28;20177;-71
2022/11/17 08:22:07;;;;;;;4.00;3.10;;;9.20;99.90;;;;;;5052681;28;20285;-71
2022/11/17 08:24:33;;;;;;;7.27;3.20;;;9.20;99.90;;;;;;5054062;28;20636;-71
2022/11/17 08:26:59;;;;;;;3.13;2.93;;;9.20;99.90;;;;;;5053903;28;20533;-71
2022/11/17 08:29:25;;;;;;;4.17;3.00;;;9.20;99.90;;;;;;5053904;28;20194;-71
2022/11/17 08:31:51;;;;;;;3.37;3.07;;;9.20;99.90;;;;;;5054064;28;20228;-71
2022/11/17 08:34:16;;;;;;;4.70;3.43;;;9.20;99.90;;;;;;5053821;28;20179;-71
2022/11/17 08:36:42;;;;;;;3.57;3.10;;;9.20;99.90;;;;;;5054121;28;20175;-71
2022/11/17 08:39:08;;;;;;;6.83;3.07;;;9.20;99.90;;;;;;5053539;28;20209;-69
2022/11/17 08:41:33;;;;;;;5.70;3.30;;;9.20;99.90;;;;;;5052432;28;20719;-70
2022/11/17 08:43:59;;;;;;;3.80;3.10;;;9.20;99.90;;;;;;5053735;28;20557;-71
2022/11/17 08:46:25;;;;;;;3.10;2.90;;;9.20;99.90;;;;;;5053950;28;20178;-71
2022/11/17 08:48:51;;;;;;;3.40;3.10;;;9.20;99.90;;;;;;5053607;28;20193;-71
2022/11/17 08:51:17;;;;;;;3.17;2.97;;;9.20;99.90;;;;;;5052736;28;20170;-72
2022/11/17 08:53:42;;;;;;;5.00;3.10;;;9.30;99.90;;;;;;5052673;28;20180;-72
2022/11/17 08:56:11;;;;;;;3.80;3.13;;;9.30;99.90;;;;;;5053836;28;20189;-72
2022/11/17 08:58:43;;;;;;;6.77;3.00;;;9.30;99.90;;;;;;5052514;28;20286;-72
2022/11/17 09:01:11;;;;;;;3.00;2.80;;;9.30;99.90;;;;;;5053880;28;20169;-72
2022/11/17 09:03:37;;;;;;;4.63;2.97;;;9.30;99.90;;;;;;5052282;28;20191;-72
2022/11/17 09:06:04;;;;;;;3.40;2.97;;;9.30;99.90;;;;;;5053420;28;20248;-72
2022/11/17 09:08:30;;;;;;;3.67;3.10;;;9.40;99.90;;;;;;5055214;28;20210;-72
2022/11/17 09:10:57;;;;;;;6.53;3.30;;;9.40;99.90;;;;;;5058785;28;20180;-72
2022/11/17 09:13:22;;;;;;;8.07;3.40;;;9.40;99.90;;;;;;5058923;28;20197;-72
2022/11/17 09:15:48;;;;;;;6.07;3.30;;;9.40;99.90;;;;;;5059007;28;20174;-72
2022/11/17 09:18:14;;;;;;;4.37;3.60;;;9.40;99.90;;;;;;5059986;28;20251;-72
2022/11/17 09:20:39;;;;;;;4.30;3.40;;;9.40;99.90;;;;;;5060058;28;20178;-72
2022/11/17 09:23:05;;;;;;;6.80;3.20;;;9.50;99.90;;;;;;5059894;28;20210;-71
2022/11/17 09:25:31;;;;;;;4.77;2.90;;;9.40;99.90;;;;;;5058578;28;20634;-72
2022/11/17 09:27:57;;;;;;;5.83;2.90;;;9.40;99.90;;;;;;5059788;28;20190;-72
2022/11/17 09:30:23;;;;;;;5.13;3.00;;;9.40;99.90;;;;;;5060278;28;20745;-72
2022/11/17 09:32:49;;;;;;;6.07;3.40;;;9.40;99.90;;;;;;5059858;28;20700;-72
2022/11/17 09:35:17;;;;;;;3.90;2.83;;;9.40;99.90;;;;;;5059864;28;20210;-72
2022/11/17 09:37:43;;;;;;;3.10;2.80;;;9.40;99.90;;;;;;5058559;28;20202;-72
2022/11/17 09:40:18;;;;;;;4.97;3.00;;;9.40;99.90;;;;;;5059884;28;20236;-72
2022/11/17 09:42:44;;;;;;;3.97;2.80;;;9.40;99.90;;;;;;5060135;28;20190;-72
2022/11/17 09:45:19;;;;;;;7.67;3.40;;;9.40;99.90;;;;;;5059747;28;20183;-72
2022/11/17 09:47:55;;;;;;;4.80;3.00;;;9.40;99.90;;;;;;5059799;28;20228;-72
2022/11/17 09:50:35;;;;;;;3.50;2.93;;;9.50;99.90;;;;;;5059984;28;20216;-72
2022/11/17 09:53:18;;;;;;;5.63;3.17;;;9.60;99.90;;;;;;5059787;28;20167;-72
2022/11/17 09:55:54;;;;;;;4.50;2.87;;;9.60;99.90;;;;;;5059702;28;20162;-72
2022/11/17 09:58:36;;;;;;;6.50;2.90;;;9.70;99.90;;;;;;5058590;28;20206;-72
2022/11/17 10:01:02;;;;;;;3.63;2.80;;;9.80;99.90;;;;;;5059636;28;20181;-72
2022/11/17 10:03:35;;;;;;;4.97;2.90;;;9.90;99.90;;;;;;5058476;28;20217;-73
2022/11/17 10:06:11;;;;;;;4.80;3.00;;;10.00;99.90;;;;;;5059749;28;20224;-72
2022/11/17 10:08:59;;;;;;;4.07;2.90;;;9.90;99.90;;;;;;5059663;28;20305;-72
2022/11/17 10:11:31;;;;;;;3.13;2.83;;;9.90;99.90;;;;;;5059598;28;20186;-73
2022/11/17 10:14:26;;;;;;;6.80;3.27;;;10.00;99.90;;;;;;5060556;28;20231;-73
2022/11/17 10:16:55;;;;;;;3.80;2.90;;;10.00;99.90;;;;;;5061611;28;20194;-73
2022/11/17 10:19:30;;;;;;;4.10;2.87;;;10.00;99.90;;;;;;5058296;28;20221;-72
2022/11/17 10:22:35;;;;;;;6.30;2.90;;;10.10;99.90;;;;;;5056305;28;20602;-72
2022/11/17 10:25:01;;;;;;;4.00;3.07;;;10.10;99.90;;;;;;5056381;28;20247;-73
2022/11/17 10:27:32;;;;;;;5.70;3.10;;;10.10;99.90;;;;;;5056548;28;20198;-73
2022/11/17 10:30:30;;;;;;;6.57;3.20;;;10.10;99.90;;;;;;5056169;28;20210;-73
2022/11/17 10:32:58;;;;;;;7.03;3.20;;;10.10;99.90;;;;;;5055754;28;20202;-72
2022/11/17 10:35:29;;;;;;;4.73;3.43;;;10.20;99.90;;;;;;5056357;28;20213;-72
2022/11/17 10:38:16;;;;;;;3.67;3.27;;;10.20;99.90;;;;;;5055936;28;20214;-70
2022/11/17 10:40:41;;;;;;;8.27;3.30;;;10.20;99.90;;;;;;5055989;28;20526;-70
2022/11/17 10:43:14;;;;;;;5.67;3.20;;;10.10;99.90;;;;;;5055869;28;20252;-70
2022/11/17 10:46:03;;;;;;;3.70;2.80;;;10.20;99.90;;;;;;5055812;28;20182;-70
2022/11/17 10:48:36;;;;;;;4.03;3.20;;;10.20;99.90;;;;;;5055528;28;20268;-70
2022/11/17 10:51:08;;;;;;;7.13;3.50;;;10.30;99.90;;;;;;5055944;28;20587;-70
2022/11/17 10:53:42;;;;;;;5.20;2.90;;;10.30;99.90;;;;;;5054517;28;20643;-70
2022/11/17 10:56:14;;;;;;;4.10;3.07;;;10.40;99.90;;;;;;5054378;28;20174;-70
2022/11/17 10:59:00;;;;;;;8.87;2.97;;;10.30;99.90;;;;;;5054225;28;20248;-70
2022/11/17 11:01:33;;;;;;;4.63;2.60;;;10.40;99.90;;;;;;5053900;28;20198;-70
2022/11/17 11:04:00;;;;;;;2.70;2.53;;;10.40;99.90;;;;;;5055882;28;20243;-70
2022/11/17 11:06:29;;;;;;;2.90;2.67;;;10.40;99.90;;;;;;5055544;28;20178;-71
2022/11/17 11:09:11;;;;;;;5.37;3.03;;;10.50;99.90;;;;;;5055469;28;20199;-70
2022/11/17 11:12:06;;;;;;;3.60;2.77;;;10.50;99.90;;;;;;5054063;28;20256;-70
2022/11/17 11:14:39;;;;;;;5.10;2.90;;;10.60;99.90;;;;;;5053603;28;20186;-67
2022/11/17 11:17:16;;;;;;;7.53;2.67;;;10.60;99.90;;;;;;5055388;28;20675;-67
2022/11/17 11:19:45;;;;;;;5.00;2.90;;;10.70;99.90;;;;;;5055051;28;20205;-67
2022/11/17 11:22:30;;;;;;;5.40;2.70;;;10.70;99.90;;;;;;5055021;28;20543;-66
2022/11/17 11:24:59;;;;;;;4.63;3.03;;;10.70;99.90;;;;;;5055265;28;20193;-67
2022/11/17 11:27:34;;;;;;;6.53;2.90;;;10.70;99.90;;;;;;5053716;28;20207;-67
2022/11/17 11:30:12;;;;;;;6.30;2.90;;;10.70;99.90;;;;;;5055107;28;20158;-66
2022/11/17 11:32:50;;;;;;;4.10;2.80;;;10.70;99.90;;;;;;5054766;28;20174;-68
2022/11/17 11:35:37;;;;;;;3.20;2.90;;;10.70;99.90;;;;;;5055375;28;20200;-68
2022/11/17 11:38:15;;;;;;;2.83;2.67;;;10.70;99.90;;;;;;5054662;28;20218;-67
2022/11/17 11:40:46;;;;;;;5.50;2.87;;;10.70;99.90;;;;;;5054680;28;20163;-67
2022/11/17 11:43:30;;;;;;;3.33;2.50;;;10.80;99.90;;;;;;5053498;28;20213;-67
2022/11/17 11:46:14;;;;;;;9.57;3.27;;;10.80;99.90;;;;;;5053728;28;20183;-68
2022/11/17 11:48:40;;;;;;;4.50;2.77;;;10.80;99.90;;;;;;5055053;28;20588;-69
2022/11/17 11:51:26;;;;;;;3.57;2.60;;;10.80;99.90;;;;;;5055165;28;20232;-72
2022/11/17 11:53:57;;;;;;;2.70;2.50;;;10.80;99.90;;;;;;5054691;28;20169;-72
2022/11/17 11:56:37;;;;;;;2.87;2.60;;;10.80;99.90;;;;;;5053542;28;20166;-73
2022/11/17 11:59:05;;;;;;;6.27;2.90;;;10.70;99.90;;;;;;5053473;28;20637;-72
2022/11/17 12:01:40;;;;;;;4.70;2.90;;;10.70;99.90;;;;;;5053246;28;20264;-73
2022/11/17 12:04:22;;;;;;;3.07;2.70;;;10.70;99.90;;;;;;5053384;28;20179;-71
2022/11/17 12:07:25;;;;;;;4.13;2.70;;;10.70;99.90;;;;;;5055152;28;20578;-71
2022/11/17 12:10:13;;;;;;;4.80;2.40;;;10.70;99.90;;;;;;5053287;28;20244;-72
2022/11/17 12:12:39;;;;;;;5.73;2.70;;;10.70;99.90;;;;;;5053273;28;20198;-72
2022/11/17 12:15:17;;;;;;;3.00;2.60;;;10.70;99.90;;;;;;5052953;28;20596;-71
2022/11/17 12:18:10;;;;;;;3.47;2.40;;;10.70;99.90;;;;;;5054376;28;20232;-72
2022/11/17 12:20:35;;;;;;;5.17;2.60;;;10.80;99.90;;;;;;5054642;28;20185;-72
2022/11/17 12:23:30;;;;;;;3.90;2.30;;;10.80;99.90;;;;;;5054393;28;20285;-72
2022/11/17 12:25:57;;;;;;;5.33;2.70;;;10.90;99.90;;;;;;5053232;28;20691;-72
2022/11/17 12:28:37;;;;;;;3.43;2.50;;;10.80;99.90;;;;;;5052890;28;20198;-72
2022/11/17 12:31:28;;;;;;;3.70;2.70;;;10.90;99.90;;;;;;5052768;28;20174;-72
2022/11/17 12:33:54;;;;;;;3.70;2.57;;;10.90;99.90;;;;;;5051840;28;20183;-71
2022/11/17 12:36:23;;;;;;;2.80;2.60;;;10.90;99.90;;;;;;5052690;28;20182;-72
2022/11/17 12:38:50;;;;;;;3.43;2.50;;;10.90;99.90;;;;;;5052288;28;20206;-72
2022/11/17 12:41:46;;;;;;;3.37;2.60;;;10.90;99.90;;;;;;5053630;28;20166;-72
2022/11/17 12:44:30;;;;;;;3.80;2.80;;;11.00;99.90;;;;;;5053021;28;20264;-68
2022/11/17 12:47:10;;;;;;;4.80;2.80;;;11.10;99.90;;;;;;5052527;28;20520;-68
2022/11/17 12:49:54;;;;;;;6.30;3.00;;;11.20;99.90;;;;;;5053509;28;20216;-68
2022/11/17 12:52:47;;;;;;;3.13;2.70;;;11.30;99.90;;;;;;5053365;28;20612;-68
2022/11/17 12:55:20;;;;;;;5.10;2.90;;;11.40;99.90;;;;;;5052356;28;20288;-68
2022/11/17 12:57:53;;;;;;;3.47;2.60;;;11.60;99.90;;;;;;5052329;28;20198;-68
2022/11/17 13:00:22;;;;;;;2.60;2.40;;;11.60;99.90;;;;;;5053666;28;20498;-68
2022/11/17 13:03:09;;;;;;;2.60;2.40;;;11.70;99.90;;;;;;5051899;28;20199;-68
2022/11/17 13:05:36;;;;;;;2.70;2.50;;;11.70;99.90;;;;;;5052032;28;20196;-68
2022/11/17 13:08:08;;;;;;;3.40;2.73;;;11.70;99.90;;;;;;5053432;28;20591;-68
2022/11/17 13:10:34;;;;;;;3.20;2.30;;;11.70;99.90;;;;;;5051748;28;20273;-68
2022/11/17 13:13:22;;;;;;;2.90;2.50;;;11.80;99.90;;;;;;5053128;28;20217;-67
2022/11/17 13:15:55;;;;;;;2.60;2.40;;;11.80;99.90;;;;;;5053453;28;20166;-68
2022/11/17 13:18:40;;;;;;;2.53;2.40;;;11.90;99.90;;;;;;5053299;28;20200;-67
2022/11/17 13:21:24;;;;;;;3.03;2.80;;;11.80;99.90;;;;;;5053136;28;20174;-67
2022/11/17 13:23:51;;;;;;;3.22;2.55;;;11.70;99.90;;;;;;5053399;28;20524;-67
2022/11/17 13:26:27;;;;;;;3.55;2.55;;;11.70;99.90;;;;;;5053004;28;20190;-67
2022/11/17 13:29:02;;;;;;;4.40;2.40;;;11.60;99.90;;;;;;5051655;28;20202;-67
2022/11/17 13:31:28;;;;;;;2.50;2.30;;;11.50;99.90;;;;;;5051747;28;20316;-67
2022/11/17 13:34:17;;;;;;;2.60;2.40;;;11.50;99.90;;;;;;5052886;28;20174;-67
2022/11/17 13:36:57;;;;;;;5.40;2.60;;;11.40;99.90;;;;;;5051641;28;20260;-67
2022/11/17 13:39:25;;;;;;;2.87;2.53;;;11.40;99.90;;;;;;5052893;28;20209;-67
2022/11/17 13:41:52;;;;;;;3.67;2.63;;;11.40;99.90;;;;;;5052728;28;20204;-67
2022/11/17 13:44:22;;;;;;;2.83;2.63;;;11.40;99.90;;;;;;5052847;28;20170;-67
2022/11/17 13:46:48;;;;;;;3.03;2.40;;;11.30;99.90;;;;;;5053115;28;20178;-67
2022/11/17 13:49:36;;;;;;;5.33;2.53;;;11.30;99.90;;;;;;5052834;28;20190;-67
2022/11/17 13:52:04;;;;;;;3.50;2.50;;;11.30;99.90;;;;;;5053146;28;20182;-67